sensor_id;sensor_type;location;lat;lon;timestamp;P1;durP1;ratioP1;P2;durP2;ratioP2
38089;SDS011;23904;52.322;10.232;2024-02-26T00:01:28;7.53;;;3.45;;
38089;SDS011;23904;52.322;10.232;2024-02-26T00:03:58;6.28;;;3.20;;
38089;SDS011;23904;52.322;10.232;2024-02-26T00:06:24;6.85;;;3.50;;
38089;SDS011;23904;52.322;10.232;2024-02-26T00:08:50;5.68;;;2.97;;
38089;SDS011;23904;52.322;10.232;2024-02-26T00:11:16;5.05;;;3.03;;
38089;SDS011;23904;52.322;10.232;2024-02-26T00:13:41;7.65;;;3.40;;
38089;SDS011;23904;52.322;10.232;2024-02-26T00:16:07;9.20;;;3.78;;
38089;SDS011;23904;52.322;10.232;2024-02-26T00:18:33;7.97;;;3.60;;
38089;SDS011;23904;52.322;10.232;2024-02-26T00:20:58;7.93;;;4.50;;
38089;SDS011;23904;52.322;10.232;2024-02-26T00:23:25;6.28;;;3.33;;
38089;SDS011;23904;52.322;10.232;2024-02-26T00:25:51;5.82;;;3.30;;
38089;SDS011;23904;52.322;10.232;2024-02-26T00:28:17;6.43;;;3.22;;
38089;SDS011;23904;52.322;10.232;2024-02-26T00:30:44;9.10;;;3.08;;
38089;SDS011;23904;52.322;10.232;2024-02-26T00:33:10;23.13;;;3.70;;
38089;SDS011;23904;52.322;10.232;2024-02-26T00:35:36;5.63;;;2.92;;
38089;SDS011;23904;52.322;10.232;2024-02-26T00:38:02;4.97;;;2.67;;
38089;SDS011;23904;52.322;10.232;2024-02-26T00:40:28;5.07;;;2.95;;
38089;SDS011;23904;52.322;10.232;2024-02-26T00:42:54;5.18;;;3.00;;
38089;SDS011;23904;52.322;10.232;2024-02-26T00:45:19;5.97;;;3.20;;
38089;SDS011;23904;52.322;10.232;2024-02-26T00:47:45;9.35;;;3.47;;
38089;SDS011;23904;52.322;10.232;2024-02-26T00:50:12;6.00;;;2.78;;
38089;SDS011;23904;52.322;10.232;2024-02-26T00:52:38;7.95;;;2.83;;
38089;SDS011;23904;52.322;10.232;2024-02-26T00:55:03;4.70;;;2.45;;
38089;SDS011;23904;52.322;10.232;2024-02-26T00:57:30;12.63;;;2.70;;
38089;SDS011;23904;52.322;10.232;2024-02-26T00:59:55;3.83;;;2.47;;
38089;SDS011;23904;52.322;10.232;2024-02-26T01:02:22;5.22;;;2.45;;
38089;SDS011;23904;52.322;10.232;2024-02-26T01:04:47;6.78;;;2.42;;
38089;SDS011;23904;52.322;10.232;2024-02-26T01:07:13;5.55;;;2.50;;
38089;SDS011;23904;52.322;10.232;2024-02-26T01:09:39;4.95;;;2.35;;
38089;SDS011;23904;52.322;10.232;2024-02-26T01:12:04;4.85;;;2.15;;
38089;SDS011;23904;52.322;10.232;2024-02-26T01:14:30;5.07;;;2.63;;
38089;SDS011;23904;52.322;10.232;2024-02-26T01:16:56;5.13;;;2.65;;
38089;SDS011;23904;52.322;10.232;2024-02-26T01:19:21;7.32;;;2.63;;
38089;SDS011;23904;52.322;10.232;2024-02-26T01:21:47;5.45;;;3.00;;
38089;SDS011;23904;52.322;10.232;2024-02-26T01:24:12;5.43;;;2.42;;
38089;SDS011;23904;52.322;10.232;2024-02-26T01:26:38;6.65;;;3.17;;
38089;SDS011;23904;52.322;10.232;2024-02-26T01:29:04;5.00;;;2.90;;
38089;SDS011;23904;52.322;10.232;2024-02-26T01:31:30;7.10;;;3.05;;
38089;SDS011;23904;52.322;10.232;2024-02-26T01:33:55;5.18;;;2.60;;
38089;SDS011;23904;52.322;10.232;2024-02-26T01:36:21;5.70;;;2.90;;
38089;SDS011;23904;52.322;10.232;2024-02-26T01:38:46;3.30;;;2.25;;
38089;SDS011;23904;52.322;10.232;2024-02-26T01:41:13;4.10;;;2.13;;
38089;SDS011;23904;52.322;10.232;2024-02-26T01:43:39;6.57;;;2.70;;
38089;SDS011;23904;52.322;10.232;2024-02-26T01:46:05;5.15;;;3.00;;
38089;SDS011;23904;52.322;10.232;2024-02-26T01:48:35;4.28;;;2.15;;
38089;SDS011;23904;52.322;10.232;2024-02-26T01:51:01;5.75;;;2.70;;
38089;SDS011;23904;52.322;10.232;2024-02-26T01:53:27;4.15;;;2.38;;
38089;SDS011;23904;52.322;10.232;2024-02-26T01:55:52;8.48;;;2.85;;
38089;SDS011;23904;52.322;10.232;2024-02-26T01:58:18;6.70;;;3.05;;
38089;SDS011;23904;52.322;10.232;2024-02-26T02:00:44;5.60;;;3.35;;
38089;SDS011;23904;52.322;10.232;2024-02-26T02:03:09;9.85;;;3.65;;
38089;SDS011;23904;52.322;10.232;2024-02-26T02:05:35;7.03;;;3.35;;
38089;SDS011;23904;52.322;10.232;2024-02-26T02:08:06;6.15;;;3.08;;
38089;SDS011;23904;52.322;10.232;2024-02-26T02:10:33;5.18;;;2.72;;
38089;SDS011;23904;52.322;10.232;2024-02-26T02:13:00;5.97;;;3.13;;
38089;SDS011;23904;52.322;10.232;2024-02-26T02:15:25;7.93;;;2.67;;
38089;SDS011;23904;52.322;10.232;2024-02-26T02:17:51;5.70;;;2.92;;
38089;SDS011;23904;52.322;10.232;2024-02-26T02:20:17;6.53;;;2.88;;
38089;SDS011;23904;52.322;10.232;2024-02-26T02:22:44;6.68;;;3.13;;
38089;SDS011;23904;52.322;10.232;2024-02-26T02:25:10;8.43;;;2.58;;
38089;SDS011;23904;52.322;10.232;2024-02-26T02:27:36;7.75;;;2.70;;
38089;SDS011;23904;52.322;10.232;2024-02-26T02:30:01;4.80;;;2.75;;
38089;SDS011;23904;52.322;10.232;2024-02-26T02:32:28;5.65;;;2.40;;
38089;SDS011;23904;52.322;10.232;2024-02-26T02:34:54;4.97;;;2.67;;
38089;SDS011;23904;52.322;10.232;2024-02-26T02:37:21;4.93;;;2.10;;
38089;SDS011;23904;52.322;10.232;2024-02-26T02:39:46;6.13;;;2.55;;
38089;SDS011;23904;52.322;10.232;2024-02-26T02:42:12;4.80;;;2.85;;
38089;SDS011;23904;52.322;10.232;2024-02-26T02:44:38;3.88;;;2.10;;
38089;SDS011;23904;52.322;10.232;2024-02-26T02:47:03;5.22;;;2.30;;
38089;SDS011;23904;52.322;10.232;2024-02-26T02:49:29;4.45;;;2.38;;
38089;SDS011;23904;52.322;10.232;2024-02-26T02:51:54;6.70;;;2.05;;
38089;SDS011;23904;52.322;10.232;2024-02-26T02:54:22;4.47;;;1.98;;
38089;SDS011;23904;52.322;10.232;2024-02-26T02:56:48;4.80;;;2.20;;
38089;SDS011;23904;52.322;10.232;2024-02-26T02:59:13;5.05;;;2.30;;
38089;SDS011;23904;52.322;10.232;2024-02-26T03:01:39;4.15;;;2.40;;
38089;SDS011;23904;52.322;10.232;2024-02-26T03:04:05;3.67;;;2.22;;
38089;SDS011;23904;52.322;10.232;2024-02-26T03:06:30;4.82;;;2.08;;
38089;SDS011;23904;52.322;10.232;2024-02-26T03:08:56;5.03;;;2.33;;
38089;SDS011;23904;52.322;10.232;2024-02-26T03:11:21;3.13;;;1.90;;
38089;SDS011;23904;52.322;10.232;2024-02-26T03:13:47;3.97;;;2.28;;
38089;SDS011;23904;52.322;10.232;2024-02-26T03:16:12;4.68;;;2.58;;
38089;SDS011;23904;52.322;10.232;2024-02-26T03:18:38;4.05;;;2.03;;
38089;SDS011;23904;52.322;10.232;2024-02-26T03:21:05;5.00;;;2.50;;
38089;SDS011;23904;52.322;10.232;2024-02-26T03:23:31;5.82;;;3.05;;
38089;SDS011;23904;52.322;10.232;2024-02-26T03:26:01;4.10;;;1.90;;
38089;SDS011;23904;52.322;10.232;2024-02-26T03:28:28;4.82;;;2.30;;
38089;SDS011;23904;52.322;10.232;2024-02-26T03:30:54;4.68;;;2.50;;
38089;SDS011;23904;52.322;10.232;2024-02-26T03:33:20;4.88;;;2.22;;
38089;SDS011;23904;52.322;10.232;2024-02-26T03:35:45;7.07;;;2.78;;
38089;SDS011;23904;52.322;10.232;2024-02-26T03:38:11;5.63;;;2.90;;
38089;SDS011;23904;52.322;10.232;2024-02-26T03:40:36;4.75;;;2.55;;
38089;SDS011;23904;52.322;10.232;2024-02-26T03:43:02;4.82;;;2.45;;
38089;SDS011;23904;52.322;10.232;2024-02-26T03:45:29;5.43;;;2.50;;
38089;SDS011;23904;52.322;10.232;2024-02-26T03:47:55;3.63;;;1.98;;
38089;SDS011;23904;52.322;10.232;2024-02-26T03:50:20;5.63;;;2.72;;
38089;SDS011;23904;52.322;10.232;2024-02-26T03:52:46;6.68;;;2.38;;
38089;SDS011;23904;52.322;10.232;2024-02-26T03:55:11;4.35;;;2.20;;
38089;SDS011;23904;52.322;10.232;2024-02-26T03:57:37;5.35;;;3.05;;
38089;SDS011;23904;52.322;10.232;2024-02-26T04:00:02;6.10;;;2.95;;
38089;SDS011;23904;52.322;10.232;2024-02-26T04:02:29;6.05;;;2.35;;
38089;SDS011;23904;52.322;10.232;2024-02-26T04:04:54;6.03;;;2.60;;
38089;SDS011;23904;52.322;10.232;2024-02-26T04:07:20;7.85;;;2.83;;
38089;SDS011;23904;52.322;10.232;2024-02-26T04:09:45;6.22;;;3.85;;
38089;SDS011;23904;52.322;10.232;2024-02-26T04:12:11;6.55;;;2.88;;
38089;SDS011;23904;52.322;10.232;2024-02-26T04:14:37;5.07;;;2.70;;
38089;SDS011;23904;52.322;10.232;2024-02-26T04:17:02;5.95;;;3.03;;
38089;SDS011;23904;52.322;10.232;2024-02-26T04:19:28;3.70;;;2.28;;
38089;SDS011;23904;52.322;10.232;2024-02-26T04:21:54;6.90;;;2.50;;
38089;SDS011;23904;52.322;10.232;2024-02-26T04:24:19;8.00;;;2.80;;
38089;SDS011;23904;52.322;10.232;2024-02-26T04:26:45;6.78;;;2.55;;
38089;SDS011;23904;52.322;10.232;2024-02-26T04:29:11;7.72;;;2.90;;
38089;SDS011;23904;52.322;10.232;2024-02-26T04:31:37;5.03;;;2.50;;
38089;SDS011;23904;52.322;10.232;2024-02-26T04:34:03;4.93;;;3.53;;
38089;SDS011;23904;52.322;10.232;2024-02-26T04:36:29;5.60;;;2.88;;
38089;SDS011;23904;52.322;10.232;2024-02-26T04:38:54;5.50;;;2.95;;
38089;SDS011;23904;52.322;10.232;2024-02-26T04:41:20;9.20;;;3.85;;
38089;SDS011;23904;52.322;10.232;2024-02-26T04:43:46;6.60;;;3.17;;
38089;SDS011;23904;52.322;10.232;2024-02-26T04:46:12;6.47;;;3.45;;
38089;SDS011;23904;52.322;10.232;2024-02-26T04:48:37;6.50;;;2.92;;
38089;SDS011;23904;52.322;10.232;2024-02-26T04:51:03;4.80;;;2.75;;
38089;SDS011;23904;52.322;10.232;2024-02-26T04:53:30;5.88;;;3.47;;
38089;SDS011;23904;52.322;10.232;2024-02-26T04:55:56;6.43;;;2.85;;
38089;SDS011;23904;52.322;10.232;2024-02-26T04:58:21;6.28;;;3.97;;
38089;SDS011;23904;52.322;10.232;2024-02-26T05:00:47;7.25;;;3.30;;
38089;SDS011;23904;52.322;10.232;2024-02-26T05:03:12;6.43;;;3.50;;
38089;SDS011;23904;52.322;10.232;2024-02-26T05:05:40;6.15;;;3.20;;
38089;SDS011;23904;52.322;10.232;2024-02-26T05:08:05;5.85;;;3.33;;
38089;SDS011;23904;52.322;10.232;2024-02-26T05:10:32;5.65;;;3.13;;
38089;SDS011;23904;52.322;10.232;2024-02-26T05:12:58;5.93;;;3.10;;
38089;SDS011;23904;52.322;10.232;2024-02-26T05:15:24;5.97;;;3.08;;
38089;SDS011;23904;52.322;10.232;2024-02-26T05:17:49;6.53;;;2.70;;
38089;SDS011;23904;52.322;10.232;2024-02-26T05:20:15;6.90;;;4.25;;
38089;SDS011;23904;52.322;10.232;2024-02-26T05:22:41;7.95;;;3.47;;
38089;SDS011;23904;52.322;10.232;2024-02-26T05:25:07;6.57;;;3.15;;
38089;SDS011;23904;52.322;10.232;2024-02-26T05:27:33;6.00;;;3.20;;
38089;SDS011;23904;52.322;10.232;2024-02-26T05:29:58;6.82;;;3.78;;
38089;SDS011;23904;52.322;10.232;2024-02-26T05:32:24;7.28;;;3.53;;
38089;SDS011;23904;52.322;10.232;2024-02-26T05:34:49;7.13;;;3.78;;
38089;SDS011;23904;52.322;10.232;2024-02-26T05:37:15;8.55;;;3.78;;
38089;SDS011;23904;52.322;10.232;2024-02-26T05:39:40;6.03;;;4.03;;
38089;SDS011;23904;52.322;10.232;2024-02-26T05:42:06;8.00;;;4.03;;
38089;SDS011;23904;52.322;10.232;2024-02-26T05:44:33;5.78;;;3.72;;
38089;SDS011;23904;52.322;10.232;2024-02-26T05:46:59;5.63;;;3.17;;
38089;SDS011;23904;52.322;10.232;2024-02-26T05:49:24;6.63;;;3.90;;
38089;SDS011;23904;52.322;10.232;2024-02-26T05:51:50;6.47;;;3.75;;
38089;SDS011;23904;52.322;10.232;2024-02-26T05:54:15;6.68;;;3.72;;
38089;SDS011;23904;52.322;10.232;2024-02-26T05:56:41;8.93;;;4.25;;
38089;SDS011;23904;52.322;10.232;2024-02-26T05:59:07;8.02;;;4.10;;
38089;SDS011;23904;52.322;10.232;2024-02-26T06:01:33;6.28;;;4.10;;
38089;SDS011;23904;52.322;10.232;2024-02-26T06:03:58;6.72;;;4.07;;
38089;SDS011;23904;52.322;10.232;2024-02-26T06:06:24;5.80;;;3.75;;
38089;SDS011;23904;52.322;10.232;2024-02-26T06:08:50;7.30;;;4.40;;
38089;SDS011;23904;52.322;10.232;2024-02-26T06:11:15;7.78;;;5.15;;
38089;SDS011;23904;52.322;10.232;2024-02-26T06:13:41;9.43;;;5.53;;
38089;SDS011;23904;52.322;10.232;2024-02-26T06:16:07;11.32;;;5.80;;
38089;SDS011;23904;52.322;10.232;2024-02-26T06:18:33;8.68;;;5.05;;
38089;SDS011;23904;52.322;10.232;2024-02-26T06:20:59;8.57;;;5.45;;
38089;SDS011;23904;52.322;10.232;2024-02-26T06:23:24;9.73;;;5.28;;
38089;SDS011;23904;52.322;10.232;2024-02-26T06:25:50;8.55;;;5.07;;
38089;SDS011;23904;52.322;10.232;2024-02-26T06:28:17;10.80;;;5.05;;
38089;SDS011;23904;52.322;10.232;2024-02-26T06:30:42;6.65;;;4.70;;
38089;SDS011;23904;52.322;10.232;2024-02-26T06:33:08;6.88;;;5.15;;
38089;SDS011;23904;52.322;10.232;2024-02-26T06:35:33;7.13;;;5.32;;
38089;SDS011;23904;52.322;10.232;2024-02-26T06:37:59;9.45;;;5.50;;
38089;SDS011;23904;52.322;10.232;2024-02-26T06:40:24;10.07;;;5.95;;
38089;SDS011;23904;52.322;10.232;2024-02-26T06:42:50;12.05;;;6.43;;
38089;SDS011;23904;52.322;10.232;2024-02-26T06:45:16;9.63;;;5.57;;
38089;SDS011;23904;52.322;10.232;2024-02-26T06:47:43;10.43;;;6.10;;
38089;SDS011;23904;52.322;10.232;2024-02-26T06:50:08;11.40;;;5.93;;
38089;SDS011;23904;52.322;10.232;2024-02-26T06:52:37;12.85;;;6.97;;
38089;SDS011;23904;52.322;10.232;2024-02-26T06:55:02;11.55;;;6.53;;
38089;SDS011;23904;52.322;10.232;2024-02-26T06:57:30;10.38;;;6.90;;
38089;SDS011;23904;52.322;10.232;2024-02-26T06:59:55;9.75;;;5.95;;
38089;SDS011;23904;52.322;10.232;2024-02-26T07:02:21;12.20;;;6.30;;
38089;SDS011;23904;52.322;10.232;2024-02-26T07:04:46;8.73;;;6.40;;
38089;SDS011;23904;52.322;10.232;2024-02-26T07:07:12;9.73;;;6.93;;
38089;SDS011;23904;52.322;10.232;2024-02-26T07:09:37;9.65;;;6.20;;
38089;SDS011;23904;52.322;10.232;2024-02-26T07:12:03;11.88;;;6.28;;
38089;SDS011;23904;52.322;10.232;2024-02-26T07:14:29;9.02;;;5.80;;
38089;SDS011;23904;52.322;10.232;2024-02-26T07:16:55;9.25;;;6.00;;
38089;SDS011;23904;52.322;10.232;2024-02-26T07:19:21;12.75;;;5.68;;
38089;SDS011;23904;52.322;10.232;2024-02-26T07:21:46;8.68;;;5.78;;
38089;SDS011;23904;52.322;10.232;2024-02-26T07:24:12;7.60;;;5.10;;
38089;SDS011;23904;52.322;10.232;2024-02-26T07:26:39;9.77;;;5.95;;
38089;SDS011;23904;52.322;10.232;2024-02-26T07:29:04;9.00;;;6.00;;
38089;SDS011;23904;52.322;10.232;2024-02-26T07:31:30;9.23;;;6.30;;
38089;SDS011;23904;52.322;10.232;2024-02-26T07:33:56;9.07;;;6.35;;
38089;SDS011;23904;52.322;10.232;2024-02-26T07:36:21;9.57;;;6.88;;
38089;SDS011;23904;52.322;10.232;2024-02-26T07:38:46;8.00;;;5.43;;
38089;SDS011;23904;52.322;10.232;2024-02-26T07:41:12;10.95;;;6.03;;
38089;SDS011;23904;52.322;10.232;2024-02-26T07:43:38;8.77;;;6.40;;
38089;SDS011;23904;52.322;10.232;2024-02-26T07:46:05;9.57;;;6.00;;
38089;SDS011;23904;52.322;10.232;2024-02-26T07:48:31;10.35;;;6.45;;
38089;SDS011;23904;52.322;10.232;2024-02-26T07:50:57;9.07;;;5.93;;
38089;SDS011;23904;52.322;10.232;2024-02-26T07:53:24;10.23;;;6.43;;
38089;SDS011;23904;52.322;10.232;2024-02-26T07:55:50;9.07;;;5.82;;
38089;SDS011;23904;52.322;10.232;2024-02-26T07:58:15;8.45;;;5.60;;
38089;SDS011;23904;52.322;10.232;2024-02-26T08:00:41;11.13;;;5.70;;
38089;SDS011;23904;52.322;10.232;2024-02-26T08:03:06;9.63;;;5.80;;
38089;SDS011;23904;52.322;10.232;2024-02-26T08:05:32;10.07;;;6.88;;
38089;SDS011;23904;52.322;10.232;2024-02-26T08:07:58;11.15;;;6.30;;
38089;SDS011;23904;52.322;10.232;2024-02-26T08:10:23;12.57;;;6.47;;
38089;SDS011;23904;52.322;10.232;2024-02-26T08:12:49;11.20;;;6.07;;
38089;SDS011;23904;52.322;10.232;2024-02-26T08:15:14;8.35;;;5.53;;
38089;SDS011;23904;52.322;10.232;2024-02-26T08:17:40;9.05;;;5.25;;
38089;SDS011;23904;52.322;10.232;2024-02-26T08:20:06;8.73;;;5.82;;
38089;SDS011;23904;52.322;10.232;2024-02-26T08:22:32;9.10;;;5.47;;
38089;SDS011;23904;52.322;10.232;2024-02-26T08:24:58;8.00;;;5.00;;
38089;SDS011;23904;52.322;10.232;2024-02-26T08:27:24;14.57;;;5.80;;
38089;SDS011;23904;52.322;10.232;2024-02-26T08:29:49;9.18;;;4.90;;
38089;SDS011;23904;52.322;10.232;2024-02-26T08:32:15;7.32;;;4.50;;
38089;SDS011;23904;52.322;10.232;2024-02-26T08:34:40;7.63;;;4.82;;
38089;SDS011;23904;52.322;10.232;2024-02-26T08:37:06;7.22;;;4.93;;
38089;SDS011;23904;52.322;10.232;2024-02-26T08:39:31;7.13;;;4.63;;
38089;SDS011;23904;52.322;10.232;2024-02-26T08:41:57;7.50;;;3.88;;
38089;SDS011;23904;52.322;10.232;2024-02-26T08:44:22;7.53;;;4.38;;
38089;SDS011;23904;52.322;10.232;2024-02-26T08:46:48;5.93;;;3.83;;
38089;SDS011;23904;52.322;10.232;2024-02-26T08:49:13;8.80;;;4.10;;
38089;SDS011;23904;52.322;10.232;2024-02-26T08:51:41;5.88;;;3.80;;
38089;SDS011;23904;52.322;10.232;2024-02-26T08:54:08;5.03;;;3.75;;
38089;SDS011;23904;52.322;10.232;2024-02-26T08:56:33;6.75;;;4.00;;
38089;SDS011;23904;52.322;10.232;2024-02-26T08:58:59;6.47;;;3.83;;
38089;SDS011;23904;52.322;10.232;2024-02-26T09:01:28;7.45;;;3.80;;
38089;SDS011;23904;52.322;10.232;2024-02-26T09:03:55;6.70;;;4.00;;
38089;SDS011;23904;52.322;10.232;2024-02-26T09:06:21;6.45;;;4.38;;
38089;SDS011;23904;52.322;10.232;2024-02-26T09:08:46;5.97;;;3.78;;
38089;SDS011;23904;52.322;10.232;2024-02-26T09:11:12;7.85;;;3.63;;
38089;SDS011;23904;52.322;10.232;2024-02-26T09:13:38;6.65;;;3.97;;
38089;SDS011;23904;52.322;10.232;2024-02-26T09:16:03;8.18;;;3.97;;
38089;SDS011;23904;52.322;10.232;2024-02-26T09:18:30;7.63;;;3.83;;
38089;SDS011;23904;52.322;10.232;2024-02-26T09:20:56;8.57;;;3.22;;
38089;SDS011;23904;52.322;10.232;2024-02-26T09:23:21;6.20;;;3.58;;
38089;SDS011;23904;52.322;10.232;2024-02-26T09:25:47;9.43;;;4.45;;
38089;SDS011;23904;52.322;10.232;2024-02-26T09:28:12;6.95;;;3.58;;
38089;SDS011;23904;52.322;10.232;2024-02-26T09:30:40;7.00;;;2.92;;
38089;SDS011;23904;52.322;10.232;2024-02-26T09:33:06;8.95;;;3.92;;
38089;SDS011;23904;52.322;10.232;2024-02-26T09:35:31;7.45;;;3.95;;
38089;SDS011;23904;52.322;10.232;2024-02-26T09:37:57;5.43;;;3.42;;
38089;SDS011;23904;52.322;10.232;2024-02-26T09:40:22;5.72;;;3.08;;
38089;SDS011;23904;52.322;10.232;2024-02-26T09:42:48;6.80;;;3.25;;
38089;SDS011;23904;52.322;10.232;2024-02-26T09:45:24;6.90;;;3.25;;
38089;SDS011;23904;52.322;10.232;2024-02-26T09:47:52;5.28;;;3.17;;
38089;SDS011;23904;52.322;10.232;2024-02-26T09:50:20;6.00;;;3.03;;
38089;SDS011;23904;52.322;10.232;2024-02-26T09:52:50;6.45;;;3.17;;
38089;SDS011;23904;52.322;10.232;2024-02-26T09:55:16;4.88;;;2.85;;
38089;SDS011;23904;52.322;10.232;2024-02-26T09:57:44;4.82;;;2.63;;
38089;SDS011;23904;52.322;10.232;2024-02-26T10:00:15;6.03;;;2.80;;
38089;SDS011;23904;52.322;10.232;2024-02-26T10:02:45;3.97;;;2.40;;
38089;SDS011;23904;52.322;10.232;2024-02-26T10:05:18;5.10;;;2.65;;
38089;SDS011;23904;52.322;10.232;2024-02-26T10:07:47;6.50;;;3.15;;
38089;SDS011;23904;52.322;10.232;2024-02-26T10:10:13;5.43;;;2.88;;
38089;SDS011;23904;52.322;10.232;2024-02-26T10:12:39;6.72;;;3.10;;
38089;SDS011;23904;52.322;10.232;2024-02-26T10:15:05;5.22;;;3.17;;
38089;SDS011;23904;52.322;10.232;2024-02-26T10:17:31;6.85;;;4.00;;
38089;SDS011;23904;52.322;10.232;2024-02-26T10:20:11;5.30;;;2.72;;
38089;SDS011;23904;52.322;10.232;2024-02-26T10:22:40;6.63;;;3.45;;
38089;SDS011;23904;52.322;10.232;2024-02-26T10:25:06;6.82;;;3.58;;
38089;SDS011;23904;52.322;10.232;2024-02-26T10:27:33;6.38;;;3.65;;
38089;SDS011;23904;52.322;10.232;2024-02-26T10:30:18;5.75;;;3.50;;
38089;SDS011;23904;52.322;10.232;2024-02-26T10:32:46;6.30;;;3.40;;
38089;SDS011;23904;52.322;10.232;2024-02-26T10:35:15;5.85;;;3.28;;
38089;SDS011;23904;52.322;10.232;2024-02-26T10:37:42;7.65;;;3.33;;
38089;SDS011;23904;52.322;10.232;2024-02-26T10:40:10;4.97;;;3.15;;
38089;SDS011;23904;52.322;10.232;2024-02-26T10:42:36;6.65;;;3.40;;
38089;SDS011;23904;52.322;10.232;2024-02-26T10:45:03;6.50;;;3.90;;
38089;SDS011;23904;52.322;10.232;2024-02-26T10:47:30;8.07;;;4.22;;
38089;SDS011;23904;52.322;10.232;2024-02-26T10:49:58;7.00;;;3.42;;
38089;SDS011;23904;52.322;10.232;2024-02-26T10:52:24;7.40;;;3.53;;
38089;SDS011;23904;52.322;10.232;2024-02-26T10:54:53;7.78;;;3.70;;
38089;SDS011;23904;52.322;10.232;2024-02-26T10:57:22;9.73;;;4.03;;
38089;SDS011;23904;52.322;10.232;2024-02-26T10:59:49;6.32;;;3.30;;
38089;SDS011;23904;52.322;10.232;2024-02-26T11:02:16;9.07;;;3.42;;
38089;SDS011;23904;52.322;10.232;2024-02-26T11:04:42;7.18;;;3.67;;
38089;SDS011;23904;52.322;10.232;2024-02-26T11:07:09;9.20;;;4.15;;
38089;SDS011;23904;52.322;10.232;2024-02-26T11:09:36;7.57;;;3.83;;
38089;SDS011;23904;52.322;10.232;2024-02-26T11:12:08;5.95;;;3.83;;
38089;SDS011;23904;52.322;10.232;2024-02-26T11:14:38;6.18;;;3.60;;
38089;SDS011;23904;52.322;10.232;2024-02-26T11:17:06;6.20;;;3.60;;
38089;SDS011;23904;52.322;10.232;2024-02-26T11:19:33;8.25;;;3.60;;
38089;SDS011;23904;52.322;10.232;2024-02-26T11:22:01;7.97;;;3.50;;
38089;SDS011;23904;52.322;10.232;2024-02-26T11:24:27;6.72;;;3.38;;
38089;SDS011;23904;52.322;10.232;2024-02-26T11:26:54;8.35;;;4.55;;
38089;SDS011;23904;52.322;10.232;2024-02-26T11:29:25;6.85;;;4.28;;
38089;SDS011;23904;52.322;10.232;2024-02-26T11:32:00;13.70;;;5.15;;
38089;SDS011;23904;52.322;10.232;2024-02-26T11:34:25;8.35;;;4.70;;
38089;SDS011;23904;52.322;10.232;2024-02-26T11:36:52;7.78;;;4.43;;
38089;SDS011;23904;52.322;10.232;2024-02-26T11:39:19;6.78;;;3.53;;
38089;SDS011;23904;52.322;10.232;2024-02-26T11:41:45;8.75;;;3.85;;
38089;SDS011;23904;52.322;10.232;2024-02-26T11:44:11;8.13;;;4.90;;
38089;SDS011;23904;52.322;10.232;2024-02-26T11:46:40;9.95;;;4.45;;
38089;SDS011;23904;52.322;10.232;2024-02-26T11:51:52;7.43;;;4.57;;
38089;SDS011;23904;52.322;10.232;2024-02-26T11:57:28;7.28;;;4.28;;
38089;SDS011;23904;52.322;10.232;2024-02-26T12:02:38;10.07;;;5.18;;
38089;SDS011;23904;52.322;10.232;2024-02-26T12:05:23;11.88;;;5.20;;
38089;SDS011;23904;52.322;10.232;2024-02-26T12:08:01;8.30;;;4.72;;
38089;SDS011;23904;52.322;10.232;2024-02-26T12:10:36;6.32;;;3.60;;
38089;SDS011;23904;52.322;10.232;2024-02-26T12:13:06;5.80;;;3.70;;
38089;SDS011;23904;52.322;10.232;2024-02-26T12:15:36;12.38;;;5.45;;
38089;SDS011;23904;52.322;10.232;2024-02-26T12:18:04;7.72;;;4.78;;
38089;SDS011;23904;52.322;10.232;2024-02-26T12:20:31;8.02;;;5.28;;
38089;SDS011;23904;52.322;10.232;2024-02-26T12:22:57;7.72;;;4.22;;
38089;SDS011;23904;52.322;10.232;2024-02-26T12:25:26;9.57;;;5.10;;
38089;SDS011;23904;52.322;10.232;2024-02-26T12:27:54;8.45;;;5.47;;
38089;SDS011;23904;52.322;10.232;2024-02-26T12:30:21;7.50;;;5.30;;
38089;SDS011;23904;52.322;10.232;2024-02-26T12:32:50;10.15;;;5.53;;
38089;SDS011;23904;52.322;10.232;2024-02-26T12:35:21;9.13;;;6.05;;
38089;SDS011;23904;52.322;10.232;2024-02-26T12:37:49;12.05;;;5.90;;
38089;SDS011;23904;52.322;10.232;2024-02-26T12:40:16;8.52;;;5.18;;
38089;SDS011;23904;52.322;10.232;2024-02-26T12:42:42;8.68;;;6.10;;
38089;SDS011;23904;52.322;10.232;2024-02-26T12:45:09;9.38;;;5.97;;
38089;SDS011;23904;52.322;10.232;2024-02-26T12:47:37;9.63;;;5.93;;
38089;SDS011;23904;52.322;10.232;2024-02-26T12:50:07;11.30;;;5.35;;
38089;SDS011;23904;52.322;10.232;2024-02-26T12:52:35;9.68;;;5.00;;
38089;SDS011;23904;52.322;10.232;2024-02-26T12:55:04;8.05;;;5.13;;
38089;SDS011;23904;52.322;10.232;2024-02-26T12:57:34;7.60;;;4.82;;
38089;SDS011;23904;52.322;10.232;2024-02-26T13:00:04;12.60;;;5.45;;
38089;SDS011;23904;52.322;10.232;2024-02-26T13:02:34;9.52;;;5.55;;
38089;SDS011;23904;52.322;10.232;2024-02-26T13:05:02;6.78;;;4.95;;
38089;SDS011;23904;52.322;10.232;2024-02-26T13:07:29;7.68;;;5.15;;
38089;SDS011;23904;52.322;10.232;2024-02-26T13:09:54;8.90;;;5.00;;
38089;SDS011;23904;52.322;10.232;2024-02-26T13:12:20;7.07;;;5.30;;
38089;SDS011;23904;52.322;10.232;2024-02-26T13:14:46;11.93;;;6.32;;
38089;SDS011;23904;52.322;10.232;2024-02-26T13:17:12;8.20;;;5.20;;
38089;SDS011;23904;52.322;10.232;2024-02-26T13:19:37;8.45;;;5.47;;
38089;SDS011;23904;52.322;10.232;2024-02-26T13:22:13;9.52;;;5.75;;
38089;SDS011;23904;52.322;10.232;2024-02-26T13:24:39;10.25;;;6.35;;
38089;SDS011;23904;52.322;10.232;2024-02-26T13:27:04;9.73;;;6.28;;
38089;SDS011;23904;52.322;10.232;2024-02-26T13:29:31;10.50;;;5.82;;
38089;SDS011;23904;52.322;10.232;2024-02-26T13:31:59;9.43;;;5.97;;
38089;SDS011;23904;52.322;10.232;2024-02-26T13:34:25;8.27;;;5.35;;
38089;SDS011;23904;52.322;10.232;2024-02-26T13:36:56;11.85;;;5.85;;
38089;SDS011;23904;52.322;10.232;2024-02-26T13:39:25;8.23;;;5.32;;
38089;SDS011;23904;52.322;10.232;2024-02-26T13:41:52;9.57;;;5.85;;
38089;SDS011;23904;52.322;10.232;2024-02-26T13:44:19;8.85;;;5.55;;
38089;SDS011;23904;52.322;10.232;2024-02-26T13:46:45;13.75;;;5.93;;
38089;SDS011;23904;52.322;10.232;2024-02-26T13:49:12;9.10;;;6.00;;
38089;SDS011;23904;52.322;10.232;2024-02-26T13:51:38;8.65;;;6.22;;
38089;SDS011;23904;52.322;10.232;2024-02-26T13:54:04;12.27;;;6.63;;
38089;SDS011;23904;52.322;10.232;2024-02-26T13:56:30;10.32;;;6.75;;
38089;SDS011;23904;52.322;10.232;2024-02-26T13:58:57;9.55;;;6.68;;
38089;SDS011;23904;52.322;10.232;2024-02-26T14:01:23;9.32;;;6.40;;
38089;SDS011;23904;52.322;10.232;2024-02-26T14:03:49;10.73;;;7.53;;
38089;SDS011;23904;52.322;10.232;2024-02-26T14:06:14;9.85;;;6.93;;
38089;SDS011;23904;52.322;10.232;2024-02-26T14:08:40;11.80;;;6.95;;
38089;SDS011;23904;52.322;10.232;2024-02-26T14:11:06;10.00;;;6.10;;
38089;SDS011;23904;52.322;10.232;2024-02-26T14:13:31;11.45;;;7.95;;
38089;SDS011;23904;52.322;10.232;2024-02-26T14:15:57;11.25;;;6.80;;
38089;SDS011;23904;52.322;10.232;2024-02-26T14:18:23;12.05;;;7.45;;
38089;SDS011;23904;52.322;10.232;2024-02-26T14:20:49;9.77;;;7.25;;
38089;SDS011;23904;52.322;10.232;2024-02-26T14:23:14;10.65;;;6.53;;
38089;SDS011;23904;52.322;10.232;2024-02-26T14:25:40;9.68;;;6.30;;
38089;SDS011;23904;52.322;10.232;2024-02-26T14:28:05;10.70;;;6.40;;
38089;SDS011;23904;52.322;10.232;2024-02-26T14:30:31;10.88;;;7.03;;
38089;SDS011;23904;52.322;10.232;2024-02-26T14:32:57;11.32;;;6.32;;
38089;SDS011;23904;52.322;10.232;2024-02-26T14:35:23;9.85;;;6.88;;
38089;SDS011;23904;52.322;10.232;2024-02-26T14:37:48;10.20;;;6.75;;